Nearby METAR Reports

 

EGNT - Newcastle, United Kingdom
Distance from station: NNE 1mi, 2km
Updated: 27/11/2018 00:50
NOT Current
Mostly cloudy
Mostly cloudy
 Wind from varies
Wind: varies 2 mph , 4 km/h
Temperature: 3°C
Dew Point: 3°C
Humidity: 100%
Barometer: 1017 hPa
Clouds: Mostly cloudy
Visibility: 5 miles , 8 km
Cloud details: Few Clouds 305 m
Mostly cloudy 914 m
2018/11/27 00:50 EGNT 270050Z VRB02KT 8000 FEW010 BKN030 03/03 Q1017
EGQM - Boulmer, United Kingdom
Distance from station: N 29mi, 47km
Updated: 27/11/2018 00:50
NOT Current
Mostly cloudy
Mostly cloudy
 Wind from SW
Wind: SW 3 mph , 6 km/h
Temperature: 6°C
Dew Point: 5°C
Humidity: 93%
Barometer: 1018 hPa
Clouds: Mostly cloudy
Visibility: 6 miles , 10 km
Cloud details: Mostly cloudy 396 m
2018/11/27 00:50 EGQM 270050Z AUTO 23003KT 9999 BKN013/// 06/05 Q1018 RERA
 
EGOM - Spadeadam, United Kingdom
Distance from station: W 34mi, 54km
Updated: 26/11/2018 23:50
NOT Current
Mist, Mostly cloudy
Mist, Mostly cloudy
 Wind from ENE
Wind: ENE 7 mph , 11 km/h
Temperature: 2°C
Wind Chill: -1°C
Dew Point: 2°C
Humidity: 100%
Barometer: 1016 hPa
Summary: Mist
Clouds: Mostly cloudy
Visibility: 2 miles , 3 km
Cloud details: Partly cloudy 30 m
Mostly cloudy 945 m
2018/11/26 23:50 EGOM 262350Z AUTO 07006KT 2500 BR SCT001/// BKN031/// 02/02 Q1016
EGNV - Tees-Side, United Kingdom
Distance from station: SSE 35mi, 57km
Updated: 26/11/2018 21:50
NOT Current
Partly cloudy
Partly cloudy
 Wind from calm
Wind: Calm
Temperature: 2°C
Dew Point: 1°C
Humidity: 93%
Barometer: 1018 hPa
Clouds: Partly cloudy
Visibility: 5 miles , 8 km
Cloud details: Few Clouds 671 m
Partly cloudy 1280 m
2018/11/26 21:50 EGNV 262150Z 00000KT 8000 FEW022 SCT042 02/01 Q1018
 
EGNC - Carlisle, United Kingdom
Distance from station: W 45mi, 72km
Updated: 12/10/2018 14:50
NOT Current
Light rain, Showers, Overcast
Light rain, Showers, Overcast
 Wind from S
Wind: S 21 mph , 33 km/h, Gust: 38 mph , 61 km/h
Temperature: 16°C
Dew Point: 14°C
Humidity: 88%
Barometer: 992 hPa
Summary: Light rain, Showers
Clouds: Overcast
Visibility: 3 miles , 5 km
Cloud details: Partly cloudy 305 m
Overcast 488 m
2018/10/12 13:50 EGNC 121350Z 18018G33KT 140V220 5000 -SHRA SCT010 OVC016 16/14 Q0992
EGXE - Leeming Raf, United Kingdom
Distance from station: S 50mi, 81km
Updated: 26/11/2018 23:50
NOT Current
Mostly cloudy
Mostly cloudy
 Wind from NNW
Wind: NNW 2 mph , 4 km/h
Temperature: 3°C
Dew Point: 3°C
Humidity: 100%
Barometer: 1017 hPa
Clouds: Mostly cloudy
Visibility: 1 mile , 2 km
Cloud details: Mostly cloudy 1311 m
2018/11/26 23:50 EGXE 262350Z AUTO 34002KT 2300 BKN043/// 03/03 Q1017
 
EGXZ - Topcliffe Raf, United Kingdom
Distance from station: SSE 57mi, 91km
Updated: 26/11/2018 23:50
NOT Current
Mist, Overcast
Mist, Overcast
 Wind from NNE
Wind: NNE 2 mph , 4 km/h
Temperature: 2°C
Dew Point: 2°C
Humidity: 100%
Barometer: 1017 hPa
Summary: Mist
Clouds: Overcast
Visibility: 1 mile , 2 km
Cloud details: Overcast 1311 m
2018/11/26 23:50 EGXZ 262350Z AUTO 02002KT 1900 BR OVC043/// 02/02 Q1017
EGXU - Linton-On-Ouse R, United Kingdom
Distance from station: SSE 68mi, 110km
Updated: 26/11/2018 23:50
NOT Current
Partly cloudy
Partly cloudy
 Wind from NW
Wind: NW 3 mph , 6 km/h
Temperature: 2°C
Dew Point: 2°C
Humidity: 100%
Barometer: 1017 hPa
Clouds: Partly cloudy
Visibility: 1 mile , 2 km
Cloud details: Few Clouds 792 m
Partly cloudy 1372 m
2018/11/26 23:50 EGXU 262350Z AUTO 31003KT 1600 // FEW026/// SCT045/// 02/02 Q1017
 
EGNM - Leeds And Bradfo, United Kingdom
Distance from station: S 78mi, 126km
Updated: 27/11/2018 00:50
NOT Current
Partly cloudy
Partly cloudy
 Wind from varies
Wind: varies 3 mph , 6 km/h
Temperature: 2°C
Dew Point: 2°C
Humidity: 100%
Barometer: 1016 hPa
Clouds: Partly cloudy
Visibility: 6 miles , 10 km
Cloud details: Partly cloudy 457 m
2018/11/27 00:50 EGNM 270050Z VRB03KT 9999 SCT015 02/02 Q1016
EGPH - Edinburgh Airpor, United Kingdom
Distance from station: NW 92mi, 148km
Updated: 27/11/2018 00:50
NOT Current
Mostly cloudy
Mostly cloudy
 Wind from ESE
Wind: ESE 5 mph , 7 km/h
Temperature: 3°C
Wind Chill: 1°C
Dew Point: 2°C
Humidity: 93%
Barometer: 1017 hPa
Clouds: Mostly cloudy
Visibility: 6 miles , 10 km
Cloud details: Few Clouds 396 m
Mostly cloudy 975 m
2018/11/27 00:50 EGPH 270050Z 12004KT 080V150 9999 FEW013 BKN032 03/02 Q1017
 
EGXV - Leconfield (aut), United Kingdom
Distance from station: SE 93mi, 150km
Updated: 26/11/2018 23:50
NOT Current
Mist, Mostly cloudy
Mist, Mostly cloudy
 Wind from N
Wind: N 2 mph , 4 km/h
Temperature: 3°C
Dew Point: 3°C
Humidity: 100%
Barometer: 1017 hPa
Summary: Mist
Clouds: Mostly cloudy
Visibility: 4 miles , 6 km
Cloud details: Few Clouds 701 m
Mostly cloudy 2438 m
2018/11/26 23:50 EGXV 262350Z AUTO 36002KT 6000 BR FEW023/// BKN080/// 03/03 Q1017
EGNO - Wharton, United Kingdom
Distance from station: SSW 99mi, 159km
Updated: 26/11/2018 18:50
NOT Current
Clear
Clear
 Wind from E
Wind: E 3 mph , 6 km/h
Temperature: 4°C
Dew Point: 2°C
Humidity: 87%
Barometer: 1017 hPa
Summary: Clear
Visibility: greater than 7 miles , 10 km
2018/11/26 18:50 EGNO 261850Z 09003KT CAVOK 04/02 Q1017
 
EGNH - Blackpool Airpor, United Kingdom
Distance from station: SSW 100mi, 161km
Updated: 26/11/2018 20:50
NOT Current
Partly cloudy
Partly cloudy
 Wind from ENE
Wind: ENE 6 mph , 9 km/h
Temperature: 3°C
Wind Chill: 0°C
Dew Point: 2°C
Humidity: 93%
Barometer: 1017 hPa
Clouds: Partly cloudy
Visibility: 6 miles , 10 km
Cloud details: Partly cloudy 975 m
2018/11/26 20:50 EGNH 262050Z 06005KT 9999 SCT032 03/02 Q1017